sensor_id;sensor_type;location;lat;lon;timestamp;pressure;altitude;pressure_sealevel;temperature;humidity
47260;BME280;32999;52.412;4.890;2024-03-17T00:04:37;102321.75;;;8.24;100.00
47260;BME280;32999;52.412;4.890;2024-03-17T00:09:39;102316.28;;;8.15;100.00
47260;BME280;32999;52.412;4.890;2024-03-17T00:14:42;102234.75;;;7.54;100.00
47260;BME280;32999;52.412;4.890;2024-03-17T00:19:45;102319.53;;;8.29;100.00
47260;BME280;32999;52.412;4.890;2024-03-17T00:24:46;102313.19;;;8.20;100.00
47260;BME280;32999;52.412;4.890;2024-03-17T00:29:49;102286.00;;;8.16;100.00
47260;BME280;32999;52.412;4.890;2024-03-17T00:34:51;102318.19;;;8.44;100.00
47260;BME280;32999;52.412;4.890;2024-03-17T00:39:53;102227.59;;;7.84;100.00
47260;BME280;32999;52.412;4.890;2024-03-17T00:44:56;102155.38;;;7.28;100.00
47260;BME280;32999;52.412;4.890;2024-03-17T00:50:00;102297.53;;;7.96;100.00
47260;BME280;32999;52.412;4.890;2024-03-17T00:55:02;102288.75;;;8.05;100.00
47260;BME280;32999;52.412;4.890;2024-03-17T01:00:07;102296.03;;;8.03;100.00
47260;BME280;32999;52.412;4.890;2024-03-17T01:05:10;102284.59;;;8.22;100.00
47260;BME280;32999;52.412;4.890;2024-03-17T01:10:12;102228.75;;;7.92;100.00
47260;BME280;32999;52.412;4.890;2024-03-17T01:15:15;102277.19;;;8.26;100.00
47260;BME280;32999;52.412;4.890;2024-03-17T01:20:17;102261.69;;;8.50;100.00
47260;BME280;32999;52.412;4.890;2024-03-17T01:25:19;102260.06;;;8.18;100.00
47260;BME280;32999;52.412;4.890;2024-03-17T01:30:22;102257.63;;;8.46;100.00
47260;BME280;32999;52.412;4.890;2024-03-17T01:35:24;102250.34;;;8.67;100.00
47260;BME280;32999;52.412;4.890;2024-03-17T01:40:26;102099.78;;;7.56;100.00
47260;BME280;32999;52.412;4.890;2024-03-17T01:45:30;102247.56;;;8.59;100.00
47260;BME280;32999;52.412;4.890;2024-03-17T01:50:35;102239.72;;;8.86;100.00
47260;BME280;32999;52.412;4.890;2024-03-17T01:55:38;102232.28;;;8.80;100.00
47260;BME280;32999;52.412;4.890;2024-03-17T02:00:41;102193.41;;;8.68;100.00
47260;BME280;32999;52.412;4.890;2024-03-17T02:05:43;102219.91;;;8.99;100.00
47260;BME280;32999;52.412;4.890;2024-03-17T02:10:45;102232.53;;;8.97;100.00
47260;BME280;32999;52.412;4.890;2024-03-17T02:15:48;102207.88;;;8.85;100.00
47260;BME280;32999;52.412;4.890;2024-03-17T02:20:50;102203.34;;;9.05;100.00
47260;BME280;32999;52.412;4.890;2024-03-17T02:26:00;102139.13;;;8.69;100.00
47260;BME280;32999;52.412;4.890;2024-03-17T02:31:03;102098.75;;;8.45;100.00
47260;BME280;32999;52.412;4.890;2024-03-17T02:36:06;102191.00;;;9.04;100.00
47260;BME280;32999;52.412;4.890;2024-03-17T02:41:11;102151.69;;;9.06;100.00
47260;BME280;32999;52.412;4.890;2024-03-17T02:46:13;102216.19;;;9.38;100.00
47260;BME280;32999;52.412;4.890;2024-03-17T02:51:16;102151.06;;;9.31;100.00
47260;BME280;32999;52.412;4.890;2024-03-17T02:56:20;102186.34;;;9.52;100.00
47260;BME280;32999;52.412;4.890;2024-03-17T03:01:21;102170.06;;;9.55;100.00
47260;BME280;32999;52.412;4.890;2024-03-17T03:06:23;102176.13;;;9.48;100.00
47260;BME280;32999;52.412;4.890;2024-03-17T03:11:27;102185.25;;;9.45;100.00
47260;BME280;32999;52.412;4.890;2024-03-17T03:16:28;102181.88;;;9.43;100.00
47260;BME280;32999;52.412;4.890;2024-03-17T03:21:30;102111.06;;;8.75;100.00
47260;BME280;32999;52.412;4.890;2024-03-17T03:26:33;102173.50;;;9.38;100.00
47260;BME280;32999;52.412;4.890;2024-03-17T03:31:35;102176.38;;;9.54;100.00
47260;BME280;32999;52.412;4.890;2024-03-17T03:36:39;102187.50;;;9.40;100.00
47260;BME280;32999;52.412;4.890;2024-03-17T03:41:43;102155.06;;;9.08;100.00
47260;BME280;32999;52.412;4.890;2024-03-17T03:46:45;102107.41;;;8.85;100.00
47260;BME280;32999;52.412;4.890;2024-03-17T03:51:47;102158.34;;;9.29;100.00
47260;BME280;32999;52.412;4.890;2024-03-17T03:56:50;102011.00;;;8.24;100.00
47260;BME280;32999;52.412;4.890;2024-03-17T04:01:52;102111.84;;;8.95;100.00
47260;BME280;32999;52.412;4.890;2024-03-17T04:06:54;102091.53;;;9.21;100.00
47260;BME280;32999;52.412;4.890;2024-03-17T04:11:57;102065.25;;;8.99;100.00
47260;BME280;32999;52.412;4.890;2024-03-17T04:16:59;102080.69;;;9.05;100.00
47260;BME280;32999;52.412;4.890;2024-03-17T04:22:01;102084.94;;;9.25;100.00
47260;BME280;32999;52.412;4.890;2024-03-17T04:27:04;102048.25;;;9.00;100.00
47260;BME280;32999;52.412;4.890;2024-03-17T04:32:06;102091.13;;;9.16;100.00
47260;BME280;32999;52.412;4.890;2024-03-17T04:37:10;102077.31;;;9.03;100.00
47260;BME280;32999;52.412;4.890;2024-03-17T04:42:15;102023.59;;;8.51;100.00
47260;BME280;32999;52.412;4.890;2024-03-17T04:47:18;102066.88;;;8.72;100.00
47260;BME280;32999;52.412;4.890;2024-03-17T04:52:19;102016.88;;;8.47;100.00
47260;BME280;32999;52.412;4.890;2024-03-17T04:57:23;101969.97;;;8.07;100.00
47260;BME280;32999;52.412;4.890;2024-03-17T05:02:24;102039.03;;;8.28;100.00
47260;BME280;32999;52.412;4.890;2024-03-17T05:07:27;102079.81;;;8.29;100.00
47260;BME280;32999;52.412;4.890;2024-03-17T05:12:30;102075.44;;;8.66;100.00
47260;BME280;32999;52.412;4.890;2024-03-17T05:17:32;102019.41;;;8.29;100.00
47260;BME280;32999;52.412;4.890;2024-03-17T05:22:34;102069.78;;;8.89;100.00
47260;BME280;32999;52.412;4.890;2024-03-17T05:27:37;102075.97;;;8.79;100.00
47260;BME280;32999;52.412;4.890;2024-03-17T05:32:38;102078.16;;;8.94;100.00
47260;BME280;32999;52.412;4.890;2024-03-17T05:37:40;102068.91;;;8.98;100.00
47260;BME280;32999;52.412;4.890;2024-03-17T05:42:43;102083.50;;;8.94;100.00
47260;BME280;32999;52.412;4.890;2024-03-17T05:47:45;102046.66;;;8.79;100.00
47260;BME280;32999;52.412;4.890;2024-03-17T05:52:47;102069.78;;;8.89;100.00
47260;BME280;32999;52.412;4.890;2024-03-17T05:57:50;102094.75;;;9.25;100.00
47260;BME280;32999;52.412;4.890;2024-03-17T06:02:51;102036.91;;;8.98;100.00
47260;BME280;32999;52.412;4.890;2024-03-17T06:07:53;102033.81;;;9.02;100.00
47260;BME280;32999;52.412;4.890;2024-03-17T06:12:56;102008.47;;;8.89;100.00
47260;BME280;32999;52.412;4.890;2024-03-17T06:17:58;102087.34;;;9.73;100.00
47260;BME280;32999;52.412;4.890;2024-03-17T06:23:02;102084.97;;;9.70;100.00
47260;BME280;32999;52.412;4.890;2024-03-17T06:28:05;102038.00;;;9.60;100.00
47260;BME280;32999;52.412;4.890;2024-03-17T06:33:12;102087.97;;;9.85;100.00
47260;BME280;32999;52.412;4.890;2024-03-17T06:38:19;101935.16;;;8.75;100.00
47260;BME280;32999;52.412;4.890;2024-03-17T06:43:22;102018.25;;;9.25;100.00
47260;BME280;32999;52.412;4.890;2024-03-17T06:48:24;102069.34;;;9.93;100.00
47260;BME280;32999;52.412;4.890;2024-03-17T06:53:31;102024.34;;;9.80;100.00
47260;BME280;32999;52.412;4.890;2024-03-17T06:58:41;102000.63;;;9.60;100.00
47260;BME280;32999;52.412;4.890;2024-03-17T07:03:42;101987.97;;;9.62;100.00
47260;BME280;32999;52.412;4.890;2024-03-17T07:08:44;101974.78;;;9.60;100.00
47260;BME280;32999;52.412;4.890;2024-03-17T07:13:47;101989.09;;;9.77;100.00
47260;BME280;32999;52.412;4.890;2024-03-17T07:18:51;101988.53;;;9.91;100.00
47260;BME280;32999;52.412;4.890;2024-03-17T07:23:53;102076.47;;;10.20;100.00
47260;BME280;32999;52.412;4.890;2024-03-17T07:28:56;102090.91;;;10.09;100.00
47260;BME280;32999;52.412;4.890;2024-03-17T07:33:58;102053.88;;;10.14;100.00
47260;BME280;32999;52.412;4.890;2024-03-17T07:38:59;102051.03;;;10.16;100.00
47260;BME280;32999;52.412;4.890;2024-03-17T07:44:03;102053.09;;;10.40;100.00
47260;BME280;32999;52.412;4.890;2024-03-17T07:49:05;101917.88;;;9.77;100.00
47260;BME280;32999;52.412;4.890;2024-03-17T07:54:08;102063.34;;;10.70;100.00
47260;BME280;32999;52.412;4.890;2024-03-17T07:59:11;101992.34;;;10.76;100.00
47260;BME280;32999;52.412;4.890;2024-03-17T08:04:17;101989.75;;;10.92;100.00
47260;BME280;32999;52.412;4.890;2024-03-17T08:09:18;102028.22;;;10.99;100.00
47260;BME280;32999;52.412;4.890;2024-03-17T08:14:24;102045.19;;;11.16;100.00
47260;BME280;32999;52.412;4.890;2024-03-17T08:19:26;102067.06;;;11.87;100.00
47260;BME280;32999;52.412;4.890;2024-03-17T08:24:28;102032.28;;;11.53;100.00
47260;BME280;32999;52.412;4.890;2024-03-17T08:29:36;102087.63;;;11.87;100.00
47260;BME280;32999;52.412;4.890;2024-03-17T08:34:38;102081.63;;;12.01;100.00
47260;BME280;32999;52.412;4.890;2024-03-17T08:40:26;102064.06;;;12.31;100.00
47260;BME280;32999;52.412;4.890;2024-03-17T08:45:45;101980.47;;;12.03;100.00
47260;BME280;32999;52.412;4.890;2024-03-17T08:50:56;102023.50;;;12.26;100.00
47260;BME280;32999;52.412;4.890;2024-03-17T08:55:58;102088.16;;;12.39;100.00
47260;BME280;32999;52.412;4.890;2024-03-17T09:01:04;102021.34;;;12.30;100.00
47260;BME280;32999;52.412;4.890;2024-03-17T09:06:14;102005.25;;;12.93;100.00
47260;BME280;32999;52.412;4.890;2024-03-17T09:11:16;102063.25;;;13.18;100.00
47260;BME280;32999;52.412;4.890;2024-03-17T09:16:20;101989.31;;;12.44;100.00
47260;BME280;32999;52.412;4.890;2024-03-17T09:21:23;102062.13;;;13.44;100.00
47260;BME280;32999;52.412;4.890;2024-03-17T09:26:26;102041.03;;;13.86;100.00
47260;BME280;32999;52.412;4.890;2024-03-17T09:31:30;102052.16;;;14.52;100.00
47260;BME280;32999;52.412;4.890;2024-03-17T09:36:34;101965.25;;;13.91;100.00
47260;BME280;32999;52.412;4.890;2024-03-17T09:41:38;102037.16;;;14.12;100.00
47260;BME280;32999;52.412;4.890;2024-03-17T09:46:42;102032.91;;;14.17;100.00
47260;BME280;32999;52.412;4.890;2024-03-17T09:51:46;101898.63;;;12.87;100.00
47260;BME280;32999;52.412;4.890;2024-03-17T09:56:49;102027.34;;;13.81;100.00
47260;BME280;32999;52.412;4.890;2024-03-17T10:01:53;102048.22;;;13.94;100.00
47260;BME280;32999;52.412;4.890;2024-03-17T10:06:55;102031.16;;;13.25;100.00
47260;BME280;32999;52.412;4.890;2024-03-17T10:11:57;102030.50;;;13.15;100.00
47260;BME280;32999;52.412;4.890;2024-03-17T10:17:00;101938.63;;;13.05;100.00
47260;BME280;32999;52.412;4.890;2024-03-17T10:22:02;102015.81;;;12.94;100.00
47260;BME280;32999;52.412;4.890;2024-03-17T10:27:05;101895.50;;;12.75;100.00
47260;BME280;32999;52.412;4.890;2024-03-17T10:32:17;101967.66;;;13.09;100.00
47260;BME280;32999;52.412;4.890;2024-03-17T10:37:20;101984.78;;;13.39;100.00
47260;BME280;32999;52.412;4.890;2024-03-17T10:42:27;101959.69;;;13.24;100.00
47260;BME280;32999;52.412;4.890;2024-03-17T10:47:33;101890.41;;;12.88;100.00
47260;BME280;32999;52.412;4.890;2024-03-17T10:52:38;101920.09;;;13.26;100.00
47260;BME280;32999;52.412;4.890;2024-03-17T10:57:45;101927.31;;;13.48;100.00
47260;BME280;32999;52.412;4.890;2024-03-17T11:02:52;101979.53;;;13.91;100.00
47260;BME280;32999;52.412;4.890;2024-03-17T11:07:56;101978.00;;;13.97;100.00
47260;BME280;32999;52.412;4.890;2024-03-17T11:13:02;101987.25;;;13.72;100.00
47260;BME280;32999;52.412;4.890;2024-03-17T11:23:43;101961.84;;;13.97;100.00
47260;BME280;32999;52.412;4.890;2024-03-17T11:28:55;101967.91;;;14.14;100.00
47260;BME280;32999;52.412;4.890;2024-03-17T11:33:59;101923.91;;;14.29;100.00
47260;BME280;32999;52.412;4.890;2024-03-17T11:39:05;101966.31;;;14.42;100.00
47260;BME280;32999;52.412;4.890;2024-03-17T11:50:10;101958.59;;;15.13;100.00
47260;BME280;32999;52.412;4.890;2024-03-17T11:55:37;101938.84;;;14.32;100.00
47260;BME280;32999;52.412;4.890;2024-03-17T12:00:41;101938.81;;;14.55;100.00
47260;BME280;32999;52.412;4.890;2024-03-17T12:05:43;101932.22;;;14.05;100.00
47260;BME280;32999;52.412;4.890;2024-03-17T12:10:48;101937.31;;;14.67;100.00
47260;BME280;32999;52.412;4.890;2024-03-17T12:15:50;101914.34;;;14.86;100.00
47260;BME280;32999;52.412;4.890;2024-03-17T12:21:13;101924.84;;;15.31;100.00
47260;BME280;32999;52.412;4.890;2024-03-17T12:26:16;101897.38;;;15.21;100.00
47260;BME280;32999;52.412;4.890;2024-03-17T12:31:18;101913.94;;;15.40;100.00
47260;BME280;32999;52.412;4.890;2024-03-17T12:36:22;101754.88;;;14.12;100.00
47260;BME280;32999;52.412;4.890;2024-03-17T12:41:25;101900.25;;;15.20;100.00
47260;BME280;32999;52.412;4.890;2024-03-17T12:46:27;101915.50;;;15.13;100.00
47260;BME280;32999;52.412;4.890;2024-03-17T12:51:33;101874.47;;;15.11;100.00
47260;BME280;32999;52.412;4.890;2024-03-17T12:56:38;101872.16;;;14.72;100.00
47260;BME280;32999;52.412;4.890;2024-03-17T13:02:01;101877.56;;;14.27;100.00
47260;BME280;32999;52.412;4.890;2024-03-17T13:07:16;101875.44;;;14.52;100.00
47260;BME280;32999;52.412;4.890;2024-03-17T13:12:20;101774.00;;;13.73;100.00
47260;BME280;32999;52.412;4.890;2024-03-17T13:17:22;101863.53;;;14.03;100.00
47260;BME280;32999;52.412;4.890;2024-03-17T13:22:24;101815.38;;;13.63;100.00
47260;BME280;32999;52.412;4.890;2024-03-17T13:27:51;101848.13;;;13.44;100.00
47260;BME280;32999;52.412;4.890;2024-03-17T13:33:02;101837.56;;;13.43;100.00
47260;BME280;32999;52.412;4.890;2024-03-17T13:38:12;101710.03;;;12.86;100.00
47260;BME280;32999;52.412;4.890;2024-03-17T13:43:22;101821.16;;;13.90;100.00
47260;BME280;32999;52.412;4.890;2024-03-17T13:48:26;101790.34;;;13.48;100.00
47260;BME280;32999;52.412;4.890;2024-03-17T13:53:28;101799.84;;;13.74;100.00
47260;BME280;32999;52.412;4.890;2024-03-17T13:58:31;101798.94;;;13.96;100.00
47260;BME280;32999;52.412;4.890;2024-03-17T14:03:37;101802.66;;;14.10;100.00
47260;BME280;32999;52.412;4.890;2024-03-17T14:08:39;101704.59;;;13.61;100.00
47260;BME280;32999;52.412;4.890;2024-03-17T14:13:42;101708.38;;;13.96;100.00
47260;BME280;32999;52.412;4.890;2024-03-17T14:18:44;101786.13;;;15.21;100.00
47260;BME280;32999;52.412;4.890;2024-03-17T14:23:45;101785.72;;;15.45;100.00
47260;BME280;32999;52.412;4.890;2024-03-17T14:28:49;101782.03;;;15.74;100.00
47260;BME280;32999;52.412;4.890;2024-03-17T14:33:52;101782.38;;;15.43;100.00
47260;BME280;32999;52.412;4.890;2024-03-17T14:38:57;101774.44;;;15.35;100.00
47260;BME280;32999;52.412;4.890;2024-03-17T14:44:02;101741.78;;;14.95;100.00
47260;BME280;32999;52.412;4.890;2024-03-17T14:49:04;101681.38;;;14.55;100.00
47260;BME280;32999;52.412;4.890;2024-03-17T14:54:06;101756.00;;;14.68;100.00
47260;BME280;32999;52.412;4.890;2024-03-17T14:59:11;101652.13;;;14.31;100.00
47260;BME280;32999;52.412;4.890;2024-03-17T15:04:15;101752.47;;;15.31;100.00
47260;BME280;32999;52.412;4.890;2024-03-17T15:09:18;101737.41;;;15.16;100.00
47260;BME280;32999;52.412;4.890;2024-03-17T15:14:23;101680.78;;;14.60;100.00
47260;BME280;32999;52.412;4.890;2024-03-17T15:19:25;101724.09;;;14.86;100.00
47260;BME280;32999;52.412;4.890;2024-03-17T15:24:27;101712.69;;;14.63;100.00
47260;BME280;32999;52.412;4.890;2024-03-17T15:29:31;101655.84;;;13.94;100.00
47260;BME280;32999;52.412;4.890;2024-03-17T15:34:33;101724.50;;;13.96;100.00
47260;BME280;32999;52.412;4.890;2024-03-17T15:39:37;101717.19;;;13.90;100.00
47260;BME280;32999;52.412;4.890;2024-03-17T15:44:40;101709.69;;;13.71;100.00
47260;BME280;32999;52.412;4.890;2024-03-17T15:49:42;101702.38;;;13.94;100.00
47260;BME280;32999;52.412;4.890;2024-03-17T15:54:47;101698.47;;;13.97;100.00
47260;BME280;32999;52.412;4.890;2024-03-17T15:59:50;101693.94;;;13.98;100.00
47260;BME280;32999;52.412;4.890;2024-03-17T16:04:54;101609.63;;;13.33;100.00
47260;BME280;32999;52.412;4.890;2024-03-17T16:09:56;101712.41;;;13.56;100.00
47260;BME280;32999;52.412;4.890;2024-03-17T16:15:00;101686.72;;;13.39;100.00
47260;BME280;32999;52.412;4.890;2024-03-17T16:20:03;101648.19;;;13.17;100.00
47260;BME280;32999;52.412;4.890;2024-03-17T16:25:10;101681.84;;;13.57;100.00
47260;BME280;32999;52.412;4.890;2024-03-17T16:30:14;101666.25;;;13.38;100.00
47260;BME280;32999;52.412;4.890;2024-03-17T16:35:16;101644.69;;;12.94;100.00
47260;BME280;32999;52.412;4.890;2024-03-17T16:40:18;101668.41;;;13.28;100.00
47260;BME280;32999;52.412;4.890;2024-03-17T16:45:25;101588.78;;;12.68;100.00
47260;BME280;32999;52.412;4.890;2024-03-17T16:50:29;101681.94;;;13.12;100.00
47260;BME280;32999;52.412;4.890;2024-03-17T16:55:32;101675.16;;;13.01;100.00
47260;BME280;32999;52.412;4.890;2024-03-17T17:00:36;101627.47;;;12.51;100.00
47260;BME280;32999;52.412;4.890;2024-03-17T17:05:38;101665.78;;;12.82;100.00
47260;BME280;32999;52.412;4.890;2024-03-17T17:10:40;101667.56;;;12.67;100.00
47260;BME280;32999;52.412;4.890;2024-03-17T17:15:43;101686.69;;;12.64;100.00
47260;BME280;32999;52.412;4.890;2024-03-17T17:20:45;101691.34;;;12.70;100.00
47260;BME280;32999;52.412;4.890;2024-03-17T17:25:46;101630.34;;;12.26;100.00
47260;BME280;32999;52.412;4.890;2024-03-17T17:30:50;101667.22;;;12.70;100.00
47260;BME280;32999;52.412;4.890;2024-03-17T17:35:53;101671.41;;;12.50;100.00
47260;BME280;32999;52.412;4.890;2024-03-17T17:41:14;101628.75;;;11.86;100.00
47260;BME280;32999;52.412;4.890;2024-03-17T17:46:37;101668.16;;;12.09;100.00
47260;BME280;32999;52.412;4.890;2024-03-17T17:51:43;101615.00;;;11.50;100.00
47260;BME280;32999;52.412;4.890;2024-03-17T17:56:46;101598.66;;;11.37;100.00
47260;BME280;32999;52.412;4.890;2024-03-17T18:01:52;101665.50;;;11.53;100.00
47260;BME280;32999;52.412;4.890;2024-03-17T18:06:54;101674.31;;;11.70;100.00
47260;BME280;32999;52.412;4.890;2024-03-17T18:11:56;101666.50;;;11.52;100.00
47260;BME280;32999;52.412;4.890;2024-03-17T18:17:00;101659.75;;;11.65;100.00
47260;BME280;32999;52.412;4.890;2024-03-17T18:22:02;101626.38;;;11.44;100.00
47260;BME280;32999;52.412;4.890;2024-03-17T18:27:04;101632.06;;;11.49;100.00
47260;BME280;32999;52.412;4.890;2024-03-17T18:32:07;101543.97;;;10.76;100.00
47260;BME280;32999;52.412;4.890;2024-03-17T18:37:09;101610.50;;;11.43;100.00
47260;BME280;32999;52.412;4.890;2024-03-17T18:42:10;101660.47;;;11.58;100.00
47260;BME280;32999;52.412;4.890;2024-03-17T18:47:13;101657.38;;;11.86;100.00
47260;BME280;32999;52.412;4.890;2024-03-17T18:52:15;101640.69;;;11.68;100.00
47260;BME280;32999;52.412;4.890;2024-03-17T19:03:15;101640.38;;;12.02;100.00
47260;BME280;32999;52.412;4.890;2024-03-17T19:08:17;101613.13;;;11.59;100.00
47260;BME280;32999;52.412;4.890;2024-03-17T19:13:20;101624.88;;;11.89;100.00
47260;BME280;32999;52.412;4.890;2024-03-17T19:18:24;101642.78;;;11.88;100.00
47260;BME280;32999;52.412;4.890;2024-03-17T19:23:26;101668.72;;;11.88;100.00
47260;BME280;32999;52.412;4.890;2024-03-17T19:28:28;101643.75;;;11.96;100.00
47260;BME280;32999;52.412;4.890;2024-03-17T19:33:31;101653.38;;;11.74;100.00
47260;BME280;32999;52.412;4.890;2024-03-17T19:38:34;101623.75;;;11.75;100.00
47260;BME280;32999;52.412;4.890;2024-03-17T19:43:36;101592.66;;;11.66;100.00
47260;BME280;32999;52.412;4.890;2024-03-17T19:48:44;101578.16;;;11.52;100.00
47260;BME280;32999;52.412;4.890;2024-03-17T19:53:48;101614.81;;;11.52;100.00
47260;BME280;32999;52.412;4.890;2024-03-17T19:58:52;101542.47;;;11.29;100.00
47260;BME280;32999;52.412;4.890;2024-03-17T20:03:55;101665.75;;;11.75;100.00
47260;BME280;32999;52.412;4.890;2024-03-17T20:08:57;101615.66;;;11.44;100.00
47260;BME280;32999;52.412;4.890;2024-03-17T20:13:59;101562.91;;;11.22;100.00
47260;BME280;32999;52.412;4.890;2024-03-17T20:19:04;101621.09;;;11.67;100.00
47260;BME280;32999;52.412;4.890;2024-03-17T20:24:06;101592.38;;;11.53;100.00
47260;BME280;32999;52.412;4.890;2024-03-17T20:29:08;101626.94;;;11.71;100.00
47260;BME280;32999;52.412;4.890;2024-03-17T20:34:12;101565.56;;;11.22;100.00
47260;BME280;32999;52.412;4.890;2024-03-17T20:39:14;101612.03;;;11.37;100.00
47260;BME280;32999;52.412;4.890;2024-03-17T20:44:16;101611.38;;;11.74;100.00
47260;BME280;32999;52.412;4.890;2024-03-17T20:49:20;101555.72;;;11.14;100.00
47260;BME280;32999;52.412;4.890;2024-03-17T20:54:21;101550.59;;;11.05;100.00
47260;BME280;32999;52.412;4.890;2024-03-17T20:59:24;101583.50;;;11.61;100.00
47260;BME280;32999;52.412;4.890;2024-03-17T21:04:27;101597.94;;;11.43;100.00
47260;BME280;32999;52.412;4.890;2024-03-17T21:09:30;101613.16;;;11.51;100.00
47260;BME280;32999;52.412;4.890;2024-03-17T21:14:31;101591.53;;;11.61;100.00
47260;BME280;32999;52.412;4.890;2024-03-17T21:19:34;101553.69;;;11.33;100.00
47260;BME280;32999;52.412;4.890;2024-03-17T21:24:36;101585.44;;;11.67;100.00
47260;BME280;32999;52.412;4.890;2024-03-17T21:29:38;101579.84;;;11.53;100.00
47260;BME280;32999;52.412;4.890;2024-03-17T21:34:42;101579.44;;;11.65;100.00
47260;BME280;32999;52.412;4.890;2024-03-17T21:39:43;101578.75;;;11.71;100.00
47260;BME280;32999;52.412;4.890;2024-03-17T21:44:49;101569.94;;;11.62;100.00
47260;BME280;32999;52.412;4.890;2024-03-17T21:49:52;101519.84;;;11.40;100.00
47260;BME280;32999;52.412;4.890;2024-03-17T21:54:54;101565.72;;;11.99;100.00
47260;BME280;32999;52.412;4.890;2024-03-17T21:59:56;101568.28;;;11.61;100.00
47260;BME280;32999;52.412;4.890;2024-03-17T22:05:00;101583.75;;;11.74;100.00
47260;BME280;32999;52.412;4.890;2024-03-17T22:10:03;101539.66;;;11.22;100.00
47260;BME280;32999;52.412;4.890;2024-03-17T22:15:07;101560.69;;;11.65;100.00
47260;BME280;32999;52.412;4.890;2024-03-17T22:20:12;101508.66;;;11.36;100.00
47260;BME280;32999;52.412;4.890;2024-03-17T22:25:14;101518.00;;;11.40;100.00
47260;BME280;32999;52.412;4.890;2024-03-17T22:30:15;101551.97;;;11.79;100.00
47260;BME280;32999;52.412;4.890;2024-03-17T22:35:19;101512.50;;;11.65;100.00
47260;BME280;32999;52.412;4.890;2024-03-17T22:40:20;101491.84;;;11.50;100.00
47260;BME280;32999;52.412;4.890;2024-03-17T22:45:22;101538.75;;;12.00;100.00
47260;BME280;32999;52.412;4.890;2024-03-17T22:50:25;101484.50;;;11.75;100.00
47260;BME280;32999;52.412;4.890;2024-03-17T22:55:28;101529.38;;;12.19;100.00
47260;BME280;32999;52.412;4.890;2024-03-17T23:00:30;101542.03;;;12.10;100.00
47260;BME280;32999;52.412;4.890;2024-03-17T23:05:43;101543.56;;;12.27;100.00
47260;BME280;32999;52.412;4.890;2024-03-17T23:10:45;101477.28;;;11.76;100.00
47260;BME280;32999;52.412;4.890;2024-03-17T23:15:49;101524.81;;;12.42;100.00
47260;BME280;32999;52.412;4.890;2024-03-17T23:20:53;101526.19;;;12.23;100.00
47260;BME280;32999;52.412;4.890;2024-03-17T23:25:55;101523.75;;;12.51;100.00
47260;BME280;32999;52.412;4.890;2024-03-17T23:30:57;101528.56;;;12.56;100.00
47260;BME280;32999;52.412;4.890;2024-03-17T23:36:00;101522.66;;;12.75;100.00
47260;BME280;32999;52.412;4.890;2024-03-17T23:41:02;101506.28;;;12.70;100.00
47260;BME280;32999;52.412;4.890;2024-03-17T23:46:04;101514.44;;;12.91;100.00
47260;BME280;32999;52.412;4.890;2024-03-17T23:51:14;101513.69;;;12.98;100.00
47260;BME280;32999;52.412;4.890;2024-03-17T23:56:16;101489.00;;;12.73;100.00
